createdAt,value
2023-03-04T00:00:24.759Z,0.21
2023-03-04T00:03:13.797Z,0.25
2023-03-04T00:05:40.960Z,0.28
2023-03-04T00:08:07.972Z,0.30
2023-03-04T00:10:34.853Z,0.35
2023-03-04T00:13:01.847Z,0.38
2023-03-04T00:15:28.777Z,0.42
2023-03-04T00:17:55.927Z,0.46
2023-03-04T00:20:22.880Z,0.47
2023-03-04T00:22:49.829Z,0.49
2023-03-04T00:25:16.882Z,0.52
2023-03-04T00:27:43.936Z,0.54
2023-03-04T00:30:10.953Z,0.54
2023-03-04T00:32:37.858Z,0.56
2023-03-04T00:35:05.766Z,0.59
2023-03-04T00:37:32.587Z,0.63
2023-03-04T00:39:59.359Z,0.68
2023-03-04T00:42:26.208Z,0.73
2023-03-04T00:44:53.188Z,0.78
2023-03-04T00:47:19.980Z,0.81
2023-03-04T00:49:46.778Z,0.84
2023-03-04T00:52:13.645Z,0.87
2023-03-04T00:54:40.508Z,0.89
2023-03-04T00:57:07.298Z,0.91
2023-03-04T00:59:34.062Z,0.91
2023-03-04T01:02:01.293Z,0.92
2023-03-04T01:04:30.239Z,0.94
2023-03-04T01:06:57.109Z,0.97
2023-03-04T01:09:24.024Z,0.98
2023-03-04T01:11:50.866Z,0.99
2023-03-04T01:14:17.803Z,1.01
2023-03-04T01:16:44.622Z,1.03
2023-03-04T01:19:11.565Z,1.05
2023-03-04T01:21:38.340Z,1.07
2023-03-04T01:24:05.336Z,1.09
2023-03-04T01:26:32.102Z,1.13
2023-03-04T01:28:58.932Z,1.15
2023-03-04T01:31:25.819Z,1.18
2023-03-04T01:33:52.730Z,1.22
2023-03-04T01:36:19.621Z,1.26
2023-03-04T01:38:46.499Z,1.30
2023-03-04T01:41:13.893Z,1.33
2023-03-04T01:43:40.887Z,1.37
2023-03-04T01:46:09.841Z,1.40
2023-03-04T01:48:37.777Z,1.42
2023-03-04T01:51:06.041Z,1.45
2023-03-04T01:53:33.313Z,1.48
2023-03-04T01:56:02.039Z,1.50
2023-03-04T01:58:30.325Z,1.52
2023-03-04T02:00:57.652Z,1.54
2023-03-04T02:03:25.246Z,1.56
2023-03-04T02:05:53.437Z,1.59
2023-03-04T02:08:21.706Z,1.62
2023-03-04T02:10:48.858Z,1.64
2023-03-04T02:13:16.735Z,1.66
2023-03-04T02:15:44.964Z,1.68
2023-03-04T02:18:15.040Z,1.70
2023-03-04T02:20:43.213Z,1.72
2023-03-04T02:23:10.264Z,1.75
2023-03-04T02:25:47.245Z,1.75
2023-03-04T02:28:14.811Z,1.77
2023-03-04T02:30:42.890Z,1.77
2023-03-04T02:33:14.139Z,1.79
2023-03-04T02:35:41.447Z,1.79
2023-03-04T02:38:09.779Z,1.80
2023-03-04T02:40:38.568Z,1.81
2023-03-04T02:43:06.133Z,1.81
2023-03-04T02:45:44.033Z,1.81
2023-03-04T02:48:12.541Z,1.80
2023-03-04T02:50:45.003Z,1.81
2023-03-04T02:53:12.156Z,1.82
2023-03-04T02:55:39.207Z,1.83
2023-03-04T02:58:06.882Z,1.84
2023-03-04T03:00:34.951Z,1.84
2023-03-04T03:03:02.280Z,1.85
2023-03-04T03:05:30.797Z,1.86
2023-03-04T03:07:57.954Z,1.88
2023-03-04T03:10:25.682Z,1.90
2023-03-04T03:12:53.083Z,1.90
2023-03-04T03:15:20.321Z,1.89
2023-03-04T03:17:47.291Z,1.90
2023-03-04T03:20:15.271Z,1.90
2023-03-04T03:22:42.725Z,1.89
2023-03-04T03:25:11.006Z,1.88
2023-03-04T03:27:37.961Z,1.88
2023-03-04T03:30:06.240Z,1.87
2023-03-04T03:32:35.991Z,1.88
2023-03-04T03:35:03.615Z,1.87
2023-03-04T03:37:30.674Z,1.86
2023-03-04T03:39:57.723Z,1.86
2023-03-04T03:42:24.703Z,1.87
2023-03-04T03:44:51.728Z,1.88
2023-03-04T03:47:18.776Z,1.88
2023-03-04T03:49:45.832Z,1.89
2023-03-04T03:52:13.569Z,1.84
2023-03-04T03:54:40.449Z,1.81
2023-03-04T03:57:07.500Z,1.78
2023-03-04T03:59:34.555Z,1.75
2023-03-04T04:02:01.694Z,1.75
2023-03-04T04:04:28.866Z,1.76
2023-03-04T04:06:56.023Z,1.75
2023-03-04T04:09:22.870Z,1.76
2023-03-04T04:11:49.921Z,1.76
2023-03-04T04:14:16.983Z,1.78
2023-03-04T04:16:43.983Z,1.80
2023-03-04T04:19:20.400Z,1.82
2023-03-04T04:21:47.966Z,1.84
2023-03-04T04:24:15.117Z,1.86
2023-03-04T04:26:42.578Z,1.88
2023-03-04T04:29:09.531Z,1.91
2023-03-04T04:31:36.581Z,1.93
2023-03-04T04:34:03.401Z,1.95
2023-03-04T04:36:30.477Z,1.97
2023-03-04T04:38:57.556Z,2.00
2023-03-04T04:41:26.635Z,2.03
2023-03-04T04:43:53.890Z,2.06
2023-03-04T04:46:21.025Z,2.08
2023-03-04T04:48:48.068Z,2.11
2023-03-04T04:51:15.149Z,2.13
2023-03-04T04:53:42.503Z,2.16
2023-03-04T04:56:28.289Z,2.18
2023-03-04T04:59:00.059Z,2.20
2023-03-04T05:01:27.251Z,2.23
2023-03-04T05:03:54.975Z,2.25
2023-03-04T05:06:23.257Z,2.27
2023-03-04T05:08:50.631Z,2.29
2023-03-04T05:11:19.019Z,2.31
2023-03-04T05:13:46.875Z,2.32
2023-03-04T05:16:14.614Z,2.34
2023-03-04T05:18:41.592Z,2.37
2023-03-04T05:21:08.750Z,2.38
2023-03-04T05:23:36.935Z,2.41
2023-03-04T05:26:05.107Z,2.43
2023-03-04T05:28:32.476Z,2.43
2023-03-04T05:30:59.677Z,2.44
2023-03-04T05:33:26.984Z,2.46
2023-03-04T05:35:54.683Z,2.47
2023-03-04T05:38:22.323Z,2.48
2023-03-04T05:40:49.479Z,2.50
2023-03-04T05:43:16.937Z,2.52
2023-03-04T05:45:43.890Z,2.54
2023-03-04T05:48:11.041Z,2.55
2023-03-04T05:50:38.002Z,2.57
2023-03-04T05:53:05.152Z,2.59
2023-03-04T05:55:32.202Z,2.61
2023-03-04T05:57:59.108Z,2.63
2023-03-04T06:00:26.409Z,2.64
2023-03-04T06:02:53.713Z,2.67
2023-03-04T06:05:20.821Z,2.68
2023-03-04T06:07:47.881Z,2.70
2023-03-04T06:10:16.261Z,2.72
2023-03-04T06:12:43.517Z,2.74
2023-03-04T06:15:11.087Z,2.77
2023-03-04T06:17:39.498Z,2.78
2023-03-04T06:20:09.292Z,2.79
2023-03-04T06:22:36.135Z,2.79
2023-03-04T06:25:03.693Z,2.82
2023-03-04T06:27:30.542Z,2.85
2023-03-04T06:29:57.388Z,2.87
2023-03-04T06:32:24.623Z,2.89
2023-03-04T06:34:51.593Z,2.93
2023-03-04T06:37:18.855Z,2.96
2023-03-04T06:39:45.833Z,2.99
2023-03-04T06:42:13.141Z,3.02
2023-03-04T06:44:40.424Z,3.05
2023-03-04T06:47:07.882Z,3.09
2023-03-04T06:49:34.835Z,3.12
2023-03-04T06:52:01.990Z,3.15
2023-03-04T06:54:29.146Z,3.18
2023-03-04T06:56:56.403Z,3.22
2023-03-04T06:59:23.351Z,3.27
2023-03-04T07:01:50.406Z,3.32
2023-03-04T07:04:17.406Z,3.36
2023-03-04T07:06:44.409Z,3.43
2023-03-04T07:09:11.318Z,3.51
2023-03-04T07:11:38.207Z,3.59
2023-03-04T07:14:05.161Z,3.69
2023-03-04T07:16:32.406Z,3.78
2023-03-04T07:18:59.475Z,3.88
2023-03-04T07:21:26.939Z,4.00
2023-03-04T07:23:53.791Z,4.12
2023-03-04T07:26:20.665Z,4.24
2023-03-04T07:28:47.781Z,4.34
2023-03-04T07:31:27.862Z,4.47
2023-03-04T07:34:05.757Z,4.58
2023-03-04T07:36:34.013Z,4.67
2023-03-04T07:39:00.880Z,4.74
2023-03-04T07:41:29.449Z,4.82
2023-03-04T07:43:57.327Z,4.87
2023-03-04T07:46:24.692Z,4.93
2023-03-04T07:48:51.743Z,5.00
2023-03-04T07:51:19.604Z,5.07
2023-03-04T07:53:47.683Z,5.15
2023-03-04T07:56:16.682Z,5.23
2023-03-04T07:58:43.632Z,5.29
2023-03-04T08:01:10.680Z,5.36
2023-03-04T08:03:37.711Z,5.40
2023-03-04T08:06:05.734Z,5.46
2023-03-04T08:08:32.559Z,5.52
2023-03-04T08:10:59.715Z,5.59
2023-03-04T08:13:26.872Z,5.66
2023-03-04T08:15:55.198Z,5.73
2023-03-04T08:18:22.304Z,5.78
2023-03-04T08:20:49.356Z,5.84
2023-03-04T08:23:16.408Z,5.91
2023-03-04T08:25:43.566Z,5.98
2023-03-04T08:28:12.564Z,6.06
2023-03-04T08:30:40.131Z,6.18
2023-03-04T08:33:07.492Z,6.28
2023-03-04T08:35:37.041Z,6.36
2023-03-04T08:38:04.154Z,6.42
2023-03-04T08:40:31.207Z,6.48
2023-03-04T08:42:58.254Z,6.54
2023-03-04T08:45:25.409Z,6.63
2023-03-04T08:47:52.464Z,6.71
2023-03-04T08:50:21.968Z,6.76
2023-03-04T08:52:49.238Z,6.78
2023-03-04T08:55:16.488Z,6.84
2023-03-04T08:57:43.542Z,6.93
2023-03-04T09:00:11.620Z,7.00
2023-03-04T09:02:38.467Z,7.06
2023-03-04T09:05:06.029Z,7.14
2023-03-04T09:07:32.979Z,7.24
2023-03-04T09:09:59.928Z,7.33
2023-03-04T09:12:27.103Z,7.44
2023-03-04T09:15:09.766Z,7.56
2023-03-04T09:17:38.186Z,7.72
2023-03-04T09:20:07.742Z,7.89
2023-03-04T09:22:34.647Z,8.09
2023-03-04T09:25:01.695Z,8.31
2023-03-04T09:27:28.545Z,8.41
2023-03-04T09:29:55.393Z,8.48
2023-03-04T09:32:22.355Z,8.63
2023-03-04T09:34:49.291Z,8.95
2023-03-04T09:37:16.243Z,9.19
2023-03-04T09:39:43.091Z,9.38
2023-03-04T09:42:15.057Z,9.58
2023-03-04T09:44:42.927Z,9.79
2023-03-04T09:47:17.450Z,9.87
2023-03-04T09:49:45.769Z,10.64
2023-03-04T09:52:15.658Z,11.28
2023-03-04T09:54:51.908Z,11.74
2023-03-04T09:57:44.044Z,11.88
2023-03-04T10:00:21.944Z,11.60
2023-03-04T10:03:01.065Z,11.26
2023-03-04T10:05:28.628Z,10.97
2023-03-04T10:07:57.932Z,10.57
2023-03-04T10:10:27.049Z,10.20
2023-03-04T10:12:55.823Z,10.00
2023-03-04T10:15:27.277Z,9.77
2023-03-04T10:17:59.547Z,9.45
2023-03-04T10:20:46.657Z,9.25
2023-03-04T10:23:19.256Z,9.12
2023-03-04T10:25:46.499Z,9.11
2023-03-04T10:28:17.741Z,9.10
2023-03-04T10:30:47.452Z,9.04
2023-03-04T10:33:16.759Z,9.04
2023-03-04T10:35:45.908Z,9.18
2023-03-04T10:38:13.221Z,9.52
2023-03-04T10:40:40.778Z,10.02
2023-03-04T10:43:21.127Z,10.42
2023-03-04T10:45:48.722Z,10.65
2023-03-04T10:48:20.864Z,10.80
2023-03-04T10:50:47.922Z,10.90
2023-03-04T10:53:35.146Z,10.97
2023-03-04T10:56:02.792Z,11.14
2023-03-04T10:58:29.640Z,11.31
2023-03-04T11:01:16.078Z,11.30
2023-03-04T11:03:46.931Z,11.21
2023-03-04T11:06:19.040Z,11.17
2023-03-04T11:08:53.358Z,11.10
2023-03-04T11:11:23.069Z,11.08
2023-03-04T11:13:52.385Z,11.02
2023-03-04T11:16:25.226Z,10.93
2023-03-04T11:18:53.451Z,10.84
2023-03-04T11:21:24.817Z,10.65
2023-03-04T11:24:27.499Z,10.59
2023-03-04T11:26:59.316Z,10.51
2023-03-04T11:29:32.302Z,10.43
2023-03-04T11:32:10.639Z,10.35
2023-03-04T11:34:40.633Z,10.23
2023-03-04T11:37:26.624Z,10.17
2023-03-04T11:39:58.697Z,10.06
2023-03-04T11:42:29.242Z,9.95
2023-03-04T11:44:56.292Z,9.88
2023-03-04T11:47:33.481Z,9.83
2023-03-04T11:50:10.257Z,9.99
2023-03-04T11:53:04.124Z,10.09
2023-03-04T11:55:36.496Z,10.06
2023-03-04T11:58:22.378Z,10.02
2023-03-04T12:00:58.439Z,10.10
2023-03-04T12:03:31.244Z,10.21
2023-03-04T12:06:01.341Z,10.42
2023-03-04T12:08:38.088Z,10.62
2023-03-04T12:11:08.034Z,10.72
2023-03-04T12:13:41.137Z,10.76
2023-03-04T12:16:08.408Z,10.78
2023-03-04T12:18:50.580Z,10.75
2023-03-04T12:21:42.024Z,10.77
2023-03-04T12:24:21.352Z,10.82
2023-03-04T12:26:48.285Z,11.12
2023-03-04T12:29:20.544Z,11.43
2023-03-04T12:31:53.532Z,11.95
2023-03-04T12:34:23.610Z,12.24
2023-03-04T12:37:07.385Z,12.25
2023-03-04T12:39:47.333Z,12.24
2023-03-04T12:42:23.394Z,12.16
2023-03-04T12:45:02.932Z,11.91
2023-03-04T12:47:35.916Z,11.75
2023-03-04T12:50:16.991Z,11.83
2023-03-04T12:53:01.665Z,12.37
2023-03-04T12:55:39.243Z,13.05
2023-03-04T12:58:11.919Z,13.42
2023-03-04T13:00:57.825Z,13.53
2023-03-04T13:03:43.529Z,13.44
2023-03-04T13:06:31.202Z,13.34
2023-03-04T13:09:24.462Z,13.19
2023-03-04T13:11:53.654Z,13.19
2023-03-04T13:14:20.481Z,13.14
2023-03-04T13:16:48.994Z,13.06
2023-03-04T13:19:34.624Z,13.06
2023-03-04T13:22:01.924Z,13.34
2023-03-04T13:24:46.067Z,13.62
2023-03-04T13:27:31.747Z,13.62
2023-03-04T13:29:58.702Z,13.35
2023-03-04T13:32:36.770Z,13.05
2023-03-04T13:35:23.824Z,13.04
2023-03-04T13:37:57.632Z,13.17
2023-03-04T13:40:32.618Z,13.04
2023-03-04T13:43:24.165Z,13.20
2023-03-04T13:45:51.112Z,13.12
2023-03-04T13:48:32.826Z,13.38
2023-03-04T13:50:59.876Z,13.72
2023-03-04T13:53:30.108Z,14.19
2023-03-04T13:56:12.681Z,14.29
2023-03-04T13:58:41.065Z,14.01
2023-03-04T14:01:21.706Z,14.06
2023-03-04T14:03:48.684Z,14.31
2023-03-04T14:06:18.096Z,14.65
2023-03-04T14:08:46.601Z,14.85
2023-03-04T14:11:33.919Z,14.96
2023-03-04T14:14:04.317Z,14.77
2023-03-04T14:16:34.267Z,14.71
2023-03-04T14:19:03.630Z,14.56
2023-03-04T14:21:30.973Z,14.51
2023-03-04T14:24:08.527Z,14.53
2023-03-04T14:26:35.448Z,14.58
2023-03-04T14:29:03.523Z,14.73
2023-03-04T14:31:33.863Z,14.94
2023-03-04T14:34:04.179Z,14.57
2023-03-04T14:36:33.315Z,14.15
2023-03-04T14:39:02.248Z,14.07
2023-03-04T14:41:37.449Z,14.05
2023-03-04T14:44:05.289Z,13.94
2023-03-04T14:46:36.663Z,13.89
2023-03-04T14:49:04.166Z,13.61
2023-03-04T14:51:51.866Z,13.49
2023-03-04T14:54:39.025Z,13.57
2023-03-04T14:57:21.002Z,13.46
2023-03-04T14:59:48.366Z,13.48
2023-03-04T15:02:18.282Z,13.54
2023-03-04T15:04:46.709Z,13.46
2023-03-04T15:07:19.547Z,13.43
2023-03-04T15:09:51.035Z,13.26
2023-03-04T15:12:24.592Z,13.20
2023-03-04T15:14:53.743Z,13.03
2023-03-04T15:17:23.299Z,12.87
2023-03-04T15:20:05.680Z,12.53
2023-03-04T15:22:33.210Z,11.91
2023-03-04T15:25:00.379Z,11.51
2023-03-04T15:27:28.573Z,11.39
2023-03-04T15:29:58.662Z,11.19
2023-03-04T15:32:26.642Z,10.93
2023-03-04T15:34:53.568Z,10.49
2023-03-04T15:37:22.732Z,10.10
2023-03-04T15:39:50.358Z,9.83
2023-03-04T15:42:17.984Z,9.53
2023-03-04T15:44:44.973Z,9.23
2023-03-04T15:47:15.233Z,8.97
2023-03-04T15:49:43.234Z,8.69
2023-03-04T15:52:14.961Z,8.46
2023-03-04T15:54:42.906Z,8.26
2023-03-04T15:57:18.200Z,8.05
2023-03-04T15:59:45.165Z,7.86
2023-03-04T16:02:18.492Z,7.71
2023-03-04T16:04:45.432Z,7.55
2023-03-04T16:07:17.582Z,7.45
2023-03-04T16:09:45.015Z,7.31
2023-03-04T16:12:11.933Z,7.19
2023-03-04T16:14:39.212Z,7.05
2023-03-04T16:17:07.706Z,6.94
2023-03-04T16:19:34.522Z,6.82
2023-03-04T16:22:01.535Z,6.71
2023-03-04T16:24:32.468Z,6.60
2023-03-04T16:26:59.420Z,6.50
2023-03-04T16:29:26.310Z,6.39
2023-03-04T16:31:53.671Z,6.29
2023-03-04T16:34:20.521Z,6.20
2023-03-04T16:36:47.493Z,6.12
2023-03-04T16:39:20.465Z,6.03
2023-03-04T16:41:47.469Z,5.93
2023-03-04T16:44:14.734Z,5.86
2023-03-04T16:46:41.579Z,5.76
2023-03-04T16:49:08.486Z,5.71
2023-03-04T16:51:39.330Z,5.62
2023-03-04T16:54:07.599Z,5.53
2023-03-04T16:56:34.408Z,5.45
2023-03-04T16:59:01.247Z,5.37
2023-03-04T17:01:28.810Z,5.32
2023-03-04T17:03:55.860Z,5.27
2023-03-04T17:06:23.345Z,5.24
2023-03-04T17:08:50.469Z,5.23
2023-03-04T17:11:18.615Z,5.24
2023-03-04T17:13:45.484Z,5.30
2023-03-04T17:16:12.770Z,5.37
2023-03-04T17:18:40.712Z,5.41
2023-03-04T17:21:10.412Z,5.43
2023-03-04T17:23:37.514Z,5.41
2023-03-04T17:26:04.966Z,5.39
2023-03-04T17:28:32.379Z,5.37
2023-03-04T17:30:59.490Z,5.34
2023-03-04T17:33:26.553Z,5.30
2023-03-04T17:35:53.434Z,5.24
2023-03-04T17:38:20.314Z,5.17
2023-03-04T17:40:47.112Z,5.15
2023-03-04T17:43:13.972Z,5.10
2023-03-04T17:45:41.910Z,5.06
2023-03-04T17:48:14.760Z,5.01
2023-03-04T17:50:49.332Z,4.99
2023-03-04T17:53:16.351Z,4.94
2023-03-04T17:55:59.805Z,4.90
2023-03-04T17:58:27.556Z,4.82
2023-03-04T18:00:59.987Z,4.75
2023-03-04T18:03:26.959Z,4.65
2023-03-04T18:05:53.722Z,4.55
2023-03-04T18:08:23.506Z,4.47
2023-03-04T18:10:50.930Z,4.37
2023-03-04T18:13:17.817Z,4.25
2023-03-04T18:15:44.612Z,4.12
2023-03-04T18:18:11.820Z,3.98
2023-03-04T18:20:38.793Z,3.87
2023-03-04T18:23:05.975Z,3.76
2023-03-04T18:25:33.265Z,3.64
2023-03-04T18:28:00.122Z,3.53
2023-03-04T18:30:27.321Z,3.39
2023-03-04T18:32:55.379Z,3.27
2023-03-04T18:35:22.308Z,3.16
2023-03-04T18:37:49.070Z,3.03
2023-03-04T18:40:15.930Z,2.91
2023-03-04T18:42:46.007Z,2.81
2023-03-04T18:45:13.501Z,2.70
2023-03-04T18:47:41.423Z,2.62
2023-03-04T18:50:11.349Z,2.53
2023-03-04T18:52:38.868Z,2.45
2023-03-04T18:55:05.940Z,2.35
2023-03-04T18:57:33.005Z,2.21
2023-03-04T19:00:01.876Z,2.10
2023-03-04T19:02:33.508Z,2.00
2023-03-04T19:05:03.193Z,1.90
2023-03-04T19:07:30.006Z,1.83
2023-03-04T19:09:56.897Z,1.73
2023-03-04T19:12:23.805Z,1.63
2023-03-04T19:14:50.639Z,1.57
2023-03-04T19:17:17.473Z,1.53
2023-03-04T19:19:44.322Z,1.48
2023-03-04T19:22:12.203Z,1.41
2023-03-04T19:24:38.981Z,1.38
2023-03-04T19:27:05.800Z,1.34
2023-03-04T19:29:32.630Z,1.32
2023-03-04T19:31:59.535Z,1.30
2023-03-04T19:34:26.269Z,1.28
2023-03-04T19:36:53.123Z,1.24
2023-03-04T19:39:20.021Z,1.23
2023-03-04T19:41:46.842Z,1.21
2023-03-04T19:44:13.783Z,1.20
2023-03-04T19:46:40.699Z,1.17
2023-03-04T19:49:09.453Z,1.14
2023-03-04T19:51:36.271Z,1.09
2023-03-04T19:54:03.317Z,1.05
2023-03-04T19:56:30.199Z,1.02
2023-03-04T19:58:57.143Z,1.01
2023-03-04T20:01:27.424Z,0.98
2023-03-04T20:03:55.148Z,0.97
2023-03-04T20:06:23.447Z,0.94
2023-03-04T20:08:50.749Z,0.92
2023-03-04T20:11:18.416Z,0.86
2023-03-04T20:13:45.261Z,0.82
2023-03-04T20:16:12.985Z,0.78
2023-03-04T20:18:40.240Z,0.75
2023-03-04T20:21:07.505Z,0.71
2023-03-04T20:23:34.468Z,0.69
2023-03-04T20:26:01.736Z,0.68
2023-03-04T20:28:28.606Z,0.67
2023-03-04T20:31:18.428Z,0.66
2023-03-04T20:33:48.161Z,0.65
2023-03-04T20:36:18.938Z,0.65
2023-03-04T20:38:46.213Z,0.65
2023-03-04T20:41:13.032Z,0.66
2023-03-04T20:43:39.920Z,0.64
2023-03-04T20:46:26.043Z,0.59
2023-03-04T20:48:53.369Z,0.56
2023-03-04T20:51:20.201Z,0.55
2023-03-04T20:53:47.122Z,0.53
2023-03-04T20:56:14.270Z,0.52
2023-03-04T20:58:41.021Z,0.52
2023-03-04T21:01:07.816Z,0.50
2023-03-04T21:03:34.566Z,0.50
2023-03-04T21:06:05.462Z,0.48
2023-03-04T21:08:32.353Z,0.47
2023-03-04T21:10:59.197Z,0.44
2023-03-04T21:13:32.304Z,0.41
2023-03-04T21:15:59.249Z,0.39
2023-03-04T21:18:29.613Z,0.38
2023-03-04T21:20:56.429Z,0.37
2023-03-04T21:23:23.299Z,0.33
2023-03-04T21:25:50.042Z,0.29
2023-03-04T21:28:18.410Z,0.27
2023-03-04T21:30:45.542Z,0.25
2023-03-04T21:33:16.829Z,0.23
2023-03-04T21:35:44.018Z,0.21
2023-03-04T21:38:11.015Z,0.18
2023-03-04T21:40:38.059Z,0.17
2023-03-04T21:43:06.650Z,0.15
2023-03-04T21:45:33.583Z,0.12
2023-03-04T21:48:00.571Z,0.12
2023-03-04T21:50:27.457Z,0.10
2023-03-04T21:52:54.268Z,0.10
2023-03-04T21:55:21.137Z,0.09
2023-03-04T21:57:47.933Z,0.07
2023-03-04T22:00:16.139Z,0.07
2023-03-04T22:02:42.976Z,0.05
2023-03-04T22:05:09.857Z,0.04
2023-03-04T22:07:36.731Z,0.04
2023-03-04T22:10:06.127Z,0.02
2023-03-04T22:12:33.019Z,-0.02
2023-03-04T22:15:00.069Z,-0.05
2023-03-04T22:17:27.031Z,-0.08
2023-03-04T22:19:54.660Z,-0.09
2023-03-04T22:22:21.468Z,-0.11
2023-03-04T22:24:48.246Z,-0.13
2023-03-04T22:27:15.205Z,-0.16
2023-03-04T22:29:42.139Z,-0.19
2023-03-04T22:32:08.923Z,-0.22
2023-03-04T22:34:35.684Z,-0.26
2023-03-04T22:37:02.508Z,-0.29
2023-03-04T22:39:29.442Z,-0.33
2023-03-04T22:41:56.475Z,-0.37
2023-03-04T22:44:24.133Z,-0.41
2023-03-04T22:46:51.394Z,-0.45
2023-03-04T22:49:18.357Z,-0.49
2023-03-04T22:51:45.389Z,-0.52
2023-03-04T22:54:13.575Z,-0.55
2023-03-04T22:56:40.718Z,-0.59
2023-03-04T22:59:07.680Z,-0.60
2023-03-04T23:01:34.745Z,-0.63
2023-03-04T23:04:01.777Z,-0.65
2023-03-04T23:06:29.951Z,-0.66
2023-03-04T23:08:59.673Z,-0.68
2023-03-04T23:11:28.059Z,-0.69
2023-03-04T23:13:55.514Z,-0.72
2023-03-04T23:16:23.693Z,-0.75
2023-03-04T23:18:51.475Z,-0.77
2023-03-04T23:21:27.764Z,-0.78
2023-03-04T23:23:54.556Z,-0.78
2023-03-04T23:26:21.257Z,-0.79
2023-03-04T23:28:48.309Z,-0.79
2023-03-04T23:31:15.255Z,-0.80
2023-03-04T23:33:42.693Z,-0.79
2023-03-04T23:36:14.173Z,-0.78
2023-03-04T23:38:45.800Z,-0.80
2023-03-04T23:41:13.217Z,-0.80
2023-03-04T23:43:40.022Z,-0.79
2023-03-04T23:46:08.984Z,-0.80
2023-03-04T23:48:35.860Z,-0.80
2023-03-04T23:51:02.785Z,-0.82
2023-03-04T23:53:29.874Z,-0.83
2023-03-04T23:55:56.624Z,-0.84
2023-03-04T23:58:23.512Z,-0.85
